sensor_id;sensor_type;location;lat;lon;timestamp;temperature;humidity
67942;SHT31;54731;42.600;23.476;2024-02-21T00:01:31;4.19;82.49
67942;SHT31;54731;42.600;23.476;2024-02-21T00:03:56;4.17;82.48
67942;SHT31;54731;42.600;23.476;2024-02-21T00:06:21;4.17;82.63
67942;SHT31;54731;42.600;23.476;2024-02-21T00:08:47;4.14;82.68
67942;SHT31;54731;42.600;23.476;2024-02-21T00:11:12;4.11;82.71
67942;SHT31;54731;42.600;23.476;2024-02-21T00:13:39;4.10;82.53
67942;SHT31;54731;42.600;23.476;2024-02-21T00:16:05;4.07;82.72
67942;SHT31;54731;42.600;23.476;2024-02-21T00:18:31;4.11;82.75
67942;SHT31;54731;42.600;23.476;2024-02-21T00:20:56;4.11;82.82
67942;SHT31;54731;42.600;23.476;2024-02-21T00:23:22;4.10;82.92
67942;SHT31;54731;42.600;23.476;2024-02-21T00:25:47;4.14;82.89
67942;SHT31;54731;42.600;23.476;2024-02-21T00:28:13;4.16;82.73
67942;SHT31;54731;42.600;23.476;2024-02-21T00:30:38;4.13;82.63
67942;SHT31;54731;42.600;23.476;2024-02-21T00:33:04;4.11;82.78
67942;SHT31;54731;42.600;23.476;2024-02-21T00:35:29;4.14;82.88
67942;SHT31;54731;42.600;23.476;2024-02-21T00:37:54;4.11;82.70
67942;SHT31;54731;42.600;23.476;2024-02-21T00:40:20;4.19;82.58
67942;SHT31;54731;42.600;23.476;2024-02-21T00:42:46;4.17;82.39
67942;SHT31;54731;42.600;23.476;2024-02-21T00:45:12;4.11;82.40
67942;SHT31;54731;42.600;23.476;2024-02-21T00:47:37;4.13;82.52
67942;SHT31;54731;42.600;23.476;2024-02-21T00:50:03;4.11;82.63
67942;SHT31;54731;42.600;23.476;2024-02-21T00:52:30;4.21;82.55
67942;SHT31;54731;42.600;23.476;2024-02-21T00:54:55;4.16;82.53
67942;SHT31;54731;42.600;23.476;2024-02-21T00:57:21;4.16;82.62
67942;SHT31;54731;42.600;23.476;2024-02-21T00:59:46;4.19;82.54
67942;SHT31;54731;42.600;23.476;2024-02-21T01:02:12;4.23;82.50
67942;SHT31;54731;42.600;23.476;2024-02-21T01:04:37;4.23;82.50
67942;SHT31;54731;42.600;23.476;2024-02-21T01:07:03;4.29;82.12
67942;SHT31;54731;42.600;23.476;2024-02-21T01:09:28;4.24;82.03
67942;SHT31;54731;42.600;23.476;2024-02-21T01:11:56;4.20;82.12
67942;SHT31;54731;42.600;23.476;2024-02-21T01:14:22;4.17;82.41
67942;SHT31;54731;42.600;23.476;2024-02-21T01:16:50;4.16;82.32
67942;SHT31;54731;42.600;23.476;2024-02-21T01:19:15;4.23;82.21
67942;SHT31;54731;42.600;23.476;2024-02-21T01:21:43;4.21;81.94
67942;SHT31;54731;42.600;23.476;2024-02-21T01:24:09;4.21;81.96
67942;SHT31;54731;42.600;23.476;2024-02-21T01:26:34;4.23;81.91
67942;SHT31;54731;42.600;23.476;2024-02-21T01:29:00;4.27;81.87
67942;SHT31;54731;42.600;23.476;2024-02-21T01:31:25;4.24;81.63
67942;SHT31;54731;42.600;23.476;2024-02-21T01:33:51;4.23;81.65
67942;SHT31;54731;42.600;23.476;2024-02-21T01:36:16;4.24;81.65
67942;SHT31;54731;42.600;23.476;2024-02-21T01:38:42;4.20;81.83
67942;SHT31;54731;42.600;23.476;2024-02-21T01:41:07;4.23;81.84
67942;SHT31;54731;42.600;23.476;2024-02-21T01:43:33;4.26;81.70
67942;SHT31;54731;42.600;23.476;2024-02-21T01:45:59;4.23;81.72
67942;SHT31;54731;42.600;23.476;2024-02-21T01:48:25;4.21;81.71
67942;SHT31;54731;42.600;23.476;2024-02-21T01:50:51;4.21;81.75
67942;SHT31;54731;42.600;23.476;2024-02-21T01:53:20;4.23;81.80
67942;SHT31;54731;42.600;23.476;2024-02-21T01:55:46;4.24;81.80
67942;SHT31;54731;42.600;23.476;2024-02-21T01:58:16;4.27;81.75
67942;SHT31;54731;42.600;23.476;2024-02-21T02:00:45;4.32;81.53
67942;SHT31;54731;42.600;23.476;2024-02-21T02:03:12;4.32;81.39
67942;SHT31;54731;42.600;23.476;2024-02-21T02:05:38;4.32;80.91
67942;SHT31;54731;42.600;23.476;2024-02-21T02:08:03;4.36;80.82
67942;SHT31;54731;42.600;23.476;2024-02-21T02:10:29;4.30;80.91
67942;SHT31;54731;42.600;23.476;2024-02-21T02:12:54;4.30;81.04
67942;SHT31;54731;42.600;23.476;2024-02-21T02:15:23;4.32;81.10
67942;SHT31;54731;42.600;23.476;2024-02-21T02:17:48;4.29;80.82
67942;SHT31;54731;42.600;23.476;2024-02-21T02:20:14;4.24;81.01
67942;SHT31;54731;42.600;23.476;2024-02-21T02:22:41;4.26;80.99
67942;SHT31;54731;42.600;23.476;2024-02-21T02:25:08;4.21;81.06
67942;SHT31;54731;42.600;23.476;2024-02-21T02:27:41;4.23;81.04
67942;SHT31;54731;42.600;23.476;2024-02-21T02:30:07;4.30;80.76
67942;SHT31;54731;42.600;23.476;2024-02-21T02:32:33;4.32;80.60
67942;SHT31;54731;42.600;23.476;2024-02-21T02:34:58;4.30;80.28
67942;SHT31;54731;42.600;23.476;2024-02-21T02:37:24;4.36;80.06
67942;SHT31;54731;42.600;23.476;2024-02-21T02:39:49;4.34;79.89
67942;SHT31;54731;42.600;23.476;2024-02-21T02:42:14;4.32;80.01
67942;SHT31;54731;42.600;23.476;2024-02-21T02:44:40;4.37;80.06
67942;SHT31;54731;42.600;23.476;2024-02-21T02:47:05;4.34;80.05
67942;SHT31;54731;42.600;23.476;2024-02-21T02:49:31;4.36;79.95
67942;SHT31;54731;42.600;23.476;2024-02-21T02:51:56;4.37;79.98
67942;SHT31;54731;42.600;23.476;2024-02-21T02:54:22;4.41;79.89
67942;SHT31;54731;42.600;23.476;2024-02-21T02:56:47;4.44;79.72
67942;SHT31;54731;42.600;23.476;2024-02-21T02:59:14;4.39;79.98
67942;SHT31;54731;42.600;23.476;2024-02-21T03:01:40;4.33;80.06
67942;SHT31;54731;42.600;23.476;2024-02-21T03:04:05;4.36;79.96
67942;SHT31;54731;42.600;23.476;2024-02-21T03:06:31;4.33;80.10
67942;SHT31;54731;42.600;23.476;2024-02-21T03:08:56;4.30;80.36
67942;SHT31;54731;42.600;23.476;2024-02-21T03:11:22;4.33;80.32
67942;SHT31;54731;42.600;23.476;2024-02-21T03:13:48;4.34;80.34
67942;SHT31;54731;42.600;23.476;2024-02-21T03:16:17;4.39;80.29
67942;SHT31;54731;42.600;23.476;2024-02-21T03:18:42;4.37;80.34
67942;SHT31;54731;42.600;23.476;2024-02-21T03:21:08;4.40;80.35
67942;SHT31;54731;42.600;23.476;2024-02-21T03:23:33;4.37;80.21
67942;SHT31;54731;42.600;23.476;2024-02-21T03:25:59;4.37;80.20
67942;SHT31;54731;42.600;23.476;2024-02-21T03:28:25;4.39;80.30
67942;SHT31;54731;42.600;23.476;2024-02-21T03:30:50;4.43;80.27
67942;SHT31;54731;42.600;23.476;2024-02-21T03:33:15;4.44;80.14
67942;SHT31;54731;42.600;23.476;2024-02-21T03:35:41;4.40;80.30
67942;SHT31;54731;42.600;23.476;2024-02-21T03:38:07;4.44;80.33
67942;SHT31;54731;42.600;23.476;2024-02-21T03:40:32;4.41;80.40
67942;SHT31;54731;42.600;23.476;2024-02-21T03:42:58;4.39;80.22
67942;SHT31;54731;42.600;23.476;2024-02-21T03:45:23;4.43;80.14
67942;SHT31;54731;42.600;23.476;2024-02-21T03:47:49;4.43;79.90
67942;SHT31;54731;42.600;23.476;2024-02-21T03:50:14;4.41;79.94
67942;SHT31;54731;42.600;23.476;2024-02-21T03:52:40;4.43;79.80
67942;SHT31;54731;42.600;23.476;2024-02-21T03:55:05;4.43;79.47
67942;SHT31;54731;42.600;23.476;2024-02-21T03:57:31;4.39;79.56
67942;SHT31;54731;42.600;23.476;2024-02-21T03:59:56;4.33;79.70
67942;SHT31;54731;42.600;23.476;2024-02-21T04:02:22;4.37;79.79
67942;SHT31;54731;42.600;23.476;2024-02-21T04:04:47;4.30;79.94
67942;SHT31;54731;42.600;23.476;2024-02-21T04:07:13;4.33;79.93
67942;SHT31;54731;42.600;23.476;2024-02-21T04:09:41;4.33;79.73
67942;SHT31;54731;42.600;23.476;2024-02-21T04:12:08;4.33;79.80
67942;SHT31;54731;42.600;23.476;2024-02-21T04:14:33;4.30;79.91
67942;SHT31;54731;42.600;23.476;2024-02-21T04:16:59;4.30;79.97
67942;SHT31;54731;42.600;23.476;2024-02-21T04:19:25;4.30;80.08
67942;SHT31;54731;42.600;23.476;2024-02-21T04:21:50;4.32;80.02
67942;SHT31;54731;42.600;23.476;2024-02-21T04:24:16;4.30;80.04
67942;SHT31;54731;42.600;23.476;2024-02-21T04:26:41;4.29;80.02
67942;SHT31;54731;42.600;23.476;2024-02-21T04:29:07;4.30;80.10
67942;SHT31;54731;42.600;23.476;2024-02-21T04:31:35;4.27;80.15
67942;SHT31;54731;42.600;23.476;2024-02-21T04:34:01;4.30;80.07
67942;SHT31;54731;42.600;23.476;2024-02-21T04:36:26;4.30;80.07
67942;SHT31;54731;42.600;23.476;2024-02-21T04:38:51;4.30;80.08
67942;SHT31;54731;42.600;23.476;2024-02-21T04:41:17;4.23;80.35
67942;SHT31;54731;42.600;23.476;2024-02-21T04:43:42;4.21;80.34
67942;SHT31;54731;42.600;23.476;2024-02-21T04:46:08;4.17;80.41
67942;SHT31;54731;42.600;23.476;2024-02-21T04:48:33;4.19;80.35
67942;SHT31;54731;42.600;23.476;2024-02-21T04:50:59;4.20;80.16
67942;SHT31;54731;42.600;23.476;2024-02-21T04:53:24;4.14;80.17
67942;SHT31;54731;42.600;23.476;2024-02-21T04:55:50;4.14;80.39
67942;SHT31;54731;42.600;23.476;2024-02-21T04:58:15;4.17;80.23
67942;SHT31;54731;42.600;23.476;2024-02-21T05:00:41;4.14;80.30
67942;SHT31;54731;42.600;23.476;2024-02-21T05:03:06;4.07;80.40
67942;SHT31;54731;42.600;23.476;2024-02-21T05:05:32;4.03;80.62
67942;SHT31;54731;42.600;23.476;2024-02-21T05:07:57;4.07;80.51
67942;SHT31;54731;42.600;23.476;2024-02-21T05:10:23;4.03;80.53
67942;SHT31;54731;42.600;23.476;2024-02-21T05:12:48;4.03;80.77
67942;SHT31;54731;42.600;23.476;2024-02-21T05:15:14;4.06;80.77
67942;SHT31;54731;42.600;23.476;2024-02-21T05:17:40;4.06;80.72
67942;SHT31;54731;42.600;23.476;2024-02-21T05:20:06;4.09;80.61
67942;SHT31;54731;42.600;23.476;2024-02-21T05:22:31;4.10;80.61
67942;SHT31;54731;42.600;23.476;2024-02-21T05:24:57;4.06;80.81
67942;SHT31;54731;42.600;23.476;2024-02-21T05:27:22;4.00;80.99
67942;SHT31;54731;42.600;23.476;2024-02-21T05:29:48;4.00;80.88
67942;SHT31;54731;42.600;23.476;2024-02-21T05:32:13;4.05;80.84
67942;SHT31;54731;42.600;23.476;2024-02-21T05:34:39;4.02;80.75
67942;SHT31;54731;42.600;23.476;2024-02-21T05:37:05;4.03;80.82
67942;SHT31;54731;42.600;23.476;2024-02-21T05:39:30;4.05;80.65
67942;SHT31;54731;42.600;23.476;2024-02-21T05:41:56;4.02;80.65
67942;SHT31;54731;42.600;23.476;2024-02-21T05:44:21;3.99;80.80
67942;SHT31;54731;42.600;23.476;2024-02-21T05:46:52;4.02;80.68
67942;SHT31;54731;42.600;23.476;2024-02-21T05:49:18;4.02;80.76
67942;SHT31;54731;42.600;23.476;2024-02-21T05:51:43;4.00;80.91
67942;SHT31;54731;42.600;23.476;2024-02-21T05:54:09;4.05;80.76
67942;SHT31;54731;42.600;23.476;2024-02-21T05:56:34;4.05;80.70
67942;SHT31;54731;42.600;23.476;2024-02-21T05:59:00;4.06;80.63
67942;SHT31;54731;42.600;23.476;2024-02-21T06:01:25;4.07;80.61
67942;SHT31;54731;42.600;23.476;2024-02-21T06:03:51;4.10;80.68
67942;SHT31;54731;42.600;23.476;2024-02-21T06:06:16;4.11;80.72
67942;SHT31;54731;42.600;23.476;2024-02-21T06:08:41;4.10;80.68
67942;SHT31;54731;42.600;23.476;2024-02-21T06:11:07;4.14;80.82
67942;SHT31;54731;42.600;23.476;2024-02-21T06:13:32;4.14;80.98
67942;SHT31;54731;42.600;23.476;2024-02-21T06:15:58;4.16;80.97
67942;SHT31;54731;42.600;23.476;2024-02-21T06:18:23;4.21;80.91
67942;SHT31;54731;42.600;23.476;2024-02-21T06:20:49;4.29;80.83
67942;SHT31;54731;42.600;23.476;2024-02-21T06:23:20;4.30;80.77
67942;SHT31;54731;42.600;23.476;2024-02-21T06:25:48;4.34;80.69
67942;SHT31;54731;42.600;23.476;2024-02-21T06:28:14;4.39;80.54
67942;SHT31;54731;42.600;23.476;2024-02-21T06:30:40;4.37;80.66
67942;SHT31;54731;42.600;23.476;2024-02-21T06:33:05;4.41;80.56
67942;SHT31;54731;42.600;23.476;2024-02-21T06:35:40;4.49;80.31
67942;SHT31;54731;42.600;23.476;2024-02-21T06:38:05;4.51;80.05
67942;SHT31;54731;42.600;23.476;2024-02-21T06:40:31;4.54;79.57
67942;SHT31;54731;42.600;23.476;2024-02-21T06:42:56;4.64;78.77
67942;SHT31;54731;42.600;23.476;2024-02-21T06:45:22;4.64;78.80
67942;SHT31;54731;42.600;23.476;2024-02-21T06:47:47;4.70;78.19
67942;SHT31;54731;42.600;23.476;2024-02-21T06:50:13;4.78;77.82
67942;SHT31;54731;42.600;23.476;2024-02-21T06:52:38;4.80;77.53
67942;SHT31;54731;42.600;23.476;2024-02-21T06:55:03;4.80;77.54
67942;SHT31;54731;42.600;23.476;2024-02-21T06:57:29;4.81;77.78
67942;SHT31;54731;42.600;23.476;2024-02-21T06:59:55;4.92;77.61
67942;SHT31;54731;42.600;23.476;2024-02-21T07:02:20;4.92;77.47
67942;SHT31;54731;42.600;23.476;2024-02-21T07:04:45;4.99;77.51
67942;SHT31;54731;42.600;23.476;2024-02-21T07:07:11;5.07;77.42
67942;SHT31;54731;42.600;23.476;2024-02-21T07:09:36;5.11;77.36
67942;SHT31;54731;42.600;23.476;2024-02-21T07:12:01;5.12;77.42
67942;SHT31;54731;42.600;23.476;2024-02-21T07:14:30;5.18;77.03
67942;SHT31;54731;42.600;23.476;2024-02-21T07:16:55;5.08;77.38
67942;SHT31;54731;42.600;23.476;2024-02-21T07:19:20;5.15;77.38
67942;SHT31;54731;42.600;23.476;2024-02-21T07:21:45;5.18;77.25
67942;SHT31;54731;42.600;23.476;2024-02-21T07:24:11;5.12;76.83
67942;SHT31;54731;42.600;23.476;2024-02-21T07:26:36;5.15;77.30
67942;SHT31;54731;42.600;23.476;2024-02-21T07:29:02;5.16;77.45
67942;SHT31;54731;42.600;23.476;2024-02-21T07:31:27;5.26;77.72
67942;SHT31;54731;42.600;23.476;2024-02-21T07:33:52;5.34;77.25
67942;SHT31;54731;42.600;23.476;2024-02-21T07:36:28;5.36;77.07
67942;SHT31;54731;42.600;23.476;2024-02-21T07:38:54;5.46;76.95
67942;SHT31;54731;42.600;23.476;2024-02-21T07:41:19;5.45;76.88
67942;SHT31;54731;42.600;23.476;2024-02-21T07:43:44;5.45;77.43
67942;SHT31;54731;42.600;23.476;2024-02-21T07:46:10;5.56;76.67
67942;SHT31;54731;42.600;23.476;2024-02-21T07:48:35;5.60;76.09
67942;SHT31;54731;42.600;23.476;2024-02-21T07:51:00;5.36;76.38
67942;SHT31;54731;42.600;23.476;2024-02-21T07:53:26;5.50;76.62
67942;SHT31;54731;42.600;23.476;2024-02-21T07:55:51;5.57;76.66
67942;SHT31;54731;42.600;23.476;2024-02-21T07:58:16;5.67;76.93
67942;SHT31;54731;42.600;23.476;2024-02-21T08:00:41;5.59;75.79
67942;SHT31;54731;42.600;23.476;2024-02-21T08:03:07;5.69;76.01
67942;SHT31;54731;42.600;23.476;2024-02-21T08:05:34;5.55;77.16
67942;SHT31;54731;42.600;23.476;2024-02-21T08:08:00;5.53;77.67
67942;SHT31;54731;42.600;23.476;2024-02-21T08:10:25;5.76;77.12
67942;SHT31;54731;42.600;23.476;2024-02-21T08:12:50;5.86;76.16
67942;SHT31;54731;42.600;23.476;2024-02-21T08:15:16;5.93;75.98
67942;SHT31;54731;42.600;23.476;2024-02-21T08:17:42;5.87;77.06
67942;SHT31;54731;42.600;23.476;2024-02-21T08:20:07;5.98;76.60
67942;SHT31;54731;42.600;23.476;2024-02-21T08:22:33;6.00;76.60
67942;SHT31;54731;42.600;23.476;2024-02-21T08:24:58;6.21;76.20
67942;SHT31;54731;42.600;23.476;2024-02-21T08:27:23;6.13;76.29
67942;SHT31;54731;42.600;23.476;2024-02-21T08:29:49;6.25;76.25
67942;SHT31;54731;42.600;23.476;2024-02-21T08:32:14;6.28;76.98
67942;SHT31;54731;42.600;23.476;2024-02-21T08:34:39;6.44;76.82
67942;SHT31;54731;42.600;23.476;2024-02-21T08:37:05;6.21;76.40
67942;SHT31;54731;42.600;23.476;2024-02-21T08:39:30;6.27;76.83
67942;SHT31;54731;42.600;23.476;2024-02-21T08:41:56;6.38;76.62
67942;SHT31;54731;42.600;23.476;2024-02-21T08:44:24;6.44;76.68
67942;SHT31;54731;42.600;23.476;2024-02-21T08:46:50;6.51;76.54
67942;SHT31;54731;42.600;23.476;2024-02-21T08:49:15;6.71;75.78
67942;SHT31;54731;42.600;23.476;2024-02-21T08:51:40;6.64;75.68
67942;SHT31;54731;42.600;23.476;2024-02-21T08:54:06;6.46;75.22
67942;SHT31;54731;42.600;23.476;2024-02-21T08:56:31;6.61;75.29
67942;SHT31;54731;42.600;23.476;2024-02-21T08:58:56;6.86;74.70
67942;SHT31;54731;42.600;23.476;2024-02-21T09:01:22;6.85;74.14
67942;SHT31;54731;42.600;23.476;2024-02-21T09:03:47;6.95;73.96
67942;SHT31;54731;42.600;23.476;2024-02-21T09:06:12;7.05;73.35
67942;SHT31;54731;42.600;23.476;2024-02-21T09:08:38;7.19;73.21
67942;SHT31;54731;42.600;23.476;2024-02-21T09:11:08;7.09;71.63
67942;SHT31;54731;42.600;23.476;2024-02-21T09:13:34;7.22;71.25
67942;SHT31;54731;42.600;23.476;2024-02-21T09:15:59;7.36;70.34
67942;SHT31;54731;42.600;23.476;2024-02-21T09:18:24;7.56;71.09
67942;SHT31;54731;42.600;23.476;2024-02-21T09:20:49;7.74;70.25
67942;SHT31;54731;42.600;23.476;2024-02-21T09:23:15;7.82;69.43
67942;SHT31;54731;42.600;23.476;2024-02-21T09:25:40;7.82;70.37
67942;SHT31;54731;42.600;23.476;2024-02-21T09:28:05;7.94;70.69
67942;SHT31;54731;42.600;23.476;2024-02-21T09:30:31;7.88;70.19
67942;SHT31;54731;42.600;23.476;2024-02-21T09:32:56;7.82;68.94
67942;SHT31;54731;42.600;23.476;2024-02-21T09:35:21;7.63;68.73
67942;SHT31;54731;42.600;23.476;2024-02-21T09:37:47;7.48;69.23
67942;SHT31;54731;42.600;23.476;2024-02-21T09:40:15;7.73;69.35
67942;SHT31;54731;42.600;23.476;2024-02-21T09:42:41;7.88;68.61
67942;SHT31;54731;42.600;23.476;2024-02-21T09:45:23;7.81;67.95
67942;SHT31;54731;42.600;23.476;2024-02-21T09:48:17;7.91;68.09
67942;SHT31;54731;42.600;23.476;2024-02-21T09:50:45;7.90;67.59
67942;SHT31;54731;42.600;23.476;2024-02-21T09:53:12;7.98;67.58
67942;SHT31;54731;42.600;23.476;2024-02-21T09:55:38;8.03;67.37
67942;SHT31;54731;42.600;23.476;2024-02-21T09:58:05;8.11;65.67
67942;SHT31;54731;42.600;23.476;2024-02-21T10:00:30;8.12;64.97
67942;SHT31;54731;42.600;23.476;2024-02-21T10:02:55;8.11;64.35
67942;SHT31;54731;42.600;23.476;2024-02-21T10:05:20;7.94;64.95
67942;SHT31;54731;42.600;23.476;2024-02-21T10:07:48;8.01;64.88
67942;SHT31;54731;42.600;23.476;2024-02-21T10:10:13;8.15;64.98
67942;SHT31;54731;42.600;23.476;2024-02-21T10:12:51;8.13;64.60
67942;SHT31;54731;42.600;23.476;2024-02-21T10:15:21;8.28;66.02
67942;SHT31;54731;42.600;23.476;2024-02-21T10:17:46;8.26;65.96
67942;SHT31;54731;42.600;23.476;2024-02-21T10:20:12;8.24;65.02
67942;SHT31;54731;42.600;23.476;2024-02-21T10:22:38;7.92;66.02
67942;SHT31;54731;42.600;23.476;2024-02-21T10:25:08;8.02;66.73
67942;SHT31;54731;42.600;23.476;2024-02-21T10:27:33;8.02;66.48
67942;SHT31;54731;42.600;23.476;2024-02-21T10:29:58;8.03;66.59
67942;SHT31;54731;42.600;23.476;2024-02-21T10:32:24;8.15;65.48
67942;SHT31;54731;42.600;23.476;2024-02-21T10:34:49;8.31;64.96
67942;SHT31;54731;42.600;23.476;2024-02-21T10:37:14;8.32;64.22
67942;SHT31;54731;42.600;23.476;2024-02-21T10:39:41;8.15;64.71
67942;SHT31;54731;42.600;23.476;2024-02-21T10:42:06;8.33;63.71
67942;SHT31;54731;42.600;23.476;2024-02-21T10:44:33;8.52;62.88
67942;SHT31;54731;42.600;23.476;2024-02-21T10:46:59;8.64;62.62
67942;SHT31;54731;42.600;23.476;2024-02-21T10:49:26;8.73;61.92
67942;SHT31;54731;42.600;23.476;2024-02-21T10:51:54;8.79;60.96
67942;SHT31;54731;42.600;23.476;2024-02-21T10:54:39;8.90;61.44
67942;SHT31;54731;42.600;23.476;2024-02-21T10:57:09;8.93;60.88
67942;SHT31;54731;42.600;23.476;2024-02-21T10:59:37;9.00;60.61
67942;SHT31;54731;42.600;23.476;2024-02-21T11:02:02;9.01;61.27
67942;SHT31;54731;42.600;23.476;2024-02-21T11:04:28;9.04;60.50
67942;SHT31;54731;42.600;23.476;2024-02-21T11:06:54;9.14;61.37
67942;SHT31;54731;42.600;23.476;2024-02-21T11:09:29;9.44;59.91
67942;SHT31;54731;42.600;23.476;2024-02-21T11:11:55;9.49;59.59
67942;SHT31;54731;42.600;23.476;2024-02-21T11:14:21;9.34;58.95
67942;SHT31;54731;42.600;23.476;2024-02-21T11:16:46;9.62;57.70
67942;SHT31;54731;42.600;23.476;2024-02-21T11:19:28;9.61;56.39
67942;SHT31;54731;42.600;23.476;2024-02-21T11:21:55;9.67;56.90
67942;SHT31;54731;42.600;23.476;2024-02-21T11:24:31;9.99;55.41
67942;SHT31;54731;42.600;23.476;2024-02-21T11:27:08;10.30;53.75
67942;SHT31;54731;42.600;23.476;2024-02-21T11:29:40;10.39;54.76
67942;SHT31;54731;42.600;23.476;2024-02-21T11:32:05;9.98;55.56
67942;SHT31;54731;42.600;23.476;2024-02-21T11:34:34;9.83;56.29
67942;SHT31;54731;42.600;23.476;2024-02-21T11:36:59;9.83;56.60
67942;SHT31;54731;42.600;23.476;2024-02-21T11:39:26;10.02;56.16
67942;SHT31;54731;42.600;23.476;2024-02-21T11:42:07;10.14;54.50
67942;SHT31;54731;42.600;23.476;2024-02-21T11:44:34;10.30;53.37
67942;SHT31;54731;42.600;23.476;2024-02-21T11:47:00;10.36;53.65
67942;SHT31;54731;42.600;23.476;2024-02-21T11:49:26;10.66;53.84
67942;SHT31;54731;42.600;23.476;2024-02-21T11:52:00;10.84;53.82
67942;SHT31;54731;42.600;23.476;2024-02-21T11:54:25;10.94;52.73
67942;SHT31;54731;42.600;23.476;2024-02-21T11:56:51;10.81;52.92
67942;SHT31;54731;42.600;23.476;2024-02-21T11:59:16;10.80;53.45
67942;SHT31;54731;42.600;23.476;2024-02-21T12:01:42;10.97;52.45
67942;SHT31;54731;42.600;23.476;2024-02-21T12:04:07;10.60;53.45
67942;SHT31;54731;42.600;23.476;2024-02-21T12:06:33;10.85;52.49
67942;SHT31;54731;42.600;23.476;2024-02-21T12:08:58;10.83;52.91
67942;SHT31;54731;42.600;23.476;2024-02-21T12:11:24;10.73;52.54
67942;SHT31;54731;42.600;23.476;2024-02-21T12:13:59;10.64;53.34
67942;SHT31;54731;42.600;23.476;2024-02-21T12:16:25;10.85;50.25
67942;SHT31;54731;42.600;23.476;2024-02-21T12:18:53;10.70;49.06
67942;SHT31;54731;42.600;23.476;2024-02-21T12:21:18;10.63;49.96
67942;SHT31;54731;42.600;23.476;2024-02-21T12:23:43;10.61;49.91
67942;SHT31;54731;42.600;23.476;2024-02-21T12:26:09;10.50;51.10
67942;SHT31;54731;42.600;23.476;2024-02-21T12:28:34;10.28;51.89
67942;SHT31;54731;42.600;23.476;2024-02-21T12:30:59;10.29;52.61
67942;SHT31;54731;42.600;23.476;2024-02-21T12:33:25;10.34;52.90
67942;SHT31;54731;42.600;23.476;2024-02-21T12:35:50;10.37;51.55
67942;SHT31;54731;42.600;23.476;2024-02-21T12:38:15;10.40;52.17
67942;SHT31;54731;42.600;23.476;2024-02-21T12:40:41;10.30;52.14
67942;SHT31;54731;42.600;23.476;2024-02-21T12:43:06;10.12;51.41
67942;SHT31;54731;42.600;23.476;2024-02-21T12:45:31;10.10;52.33
67942;SHT31;54731;42.600;23.476;2024-02-21T12:47:57;10.12;52.68
67942;SHT31;54731;42.600;23.476;2024-02-21T12:50:22;10.16;52.10
67942;SHT31;54731;42.600;23.476;2024-02-21T12:52:47;10.02;52.43
67942;SHT31;54731;42.600;23.476;2024-02-21T12:55:13;9.86;52.64
67942;SHT31;54731;42.600;23.476;2024-02-21T12:57:38;9.72;53.30
67942;SHT31;54731;42.600;23.476;2024-02-21T13:00:04;9.67;53.96
67942;SHT31;54731;42.600;23.476;2024-02-21T13:02:29;9.62;54.91
67942;SHT31;54731;42.600;23.476;2024-02-21T13:04:54;9.51;55.51
67942;SHT31;54731;42.600;23.476;2024-02-21T13:07:20;9.24;56.72
67942;SHT31;54731;42.600;23.476;2024-02-21T13:09:45;9.21;56.04
67942;SHT31;54731;42.600;23.476;2024-02-21T13:12:11;9.23;55.84
67942;SHT31;54731;42.600;23.476;2024-02-21T13:14:36;9.28;55.89
67942;SHT31;54731;42.600;23.476;2024-02-21T13:17:01;9.24;55.32
67942;SHT31;54731;42.600;23.476;2024-02-21T13:19:26;9.24;55.29
67942;SHT31;54731;42.600;23.476;2024-02-21T13:21:52;9.18;55.59
67942;SHT31;54731;42.600;23.476;2024-02-21T13:24:17;9.11;55.39
67942;SHT31;54731;42.600;23.476;2024-02-21T13:26:42;8.96;55.46
67942;SHT31;54731;42.600;23.476;2024-02-21T13:29:07;8.96;55.43
67942;SHT31;54731;42.600;23.476;2024-02-21T13:31:33;8.93;56.27
67942;SHT31;54731;42.600;23.476;2024-02-21T13:33:58;8.93;57.11
67942;SHT31;54731;42.600;23.476;2024-02-21T13:36:23;8.96;56.56
67942;SHT31;54731;42.600;23.476;2024-02-21T13:38:49;9.03;56.90
67942;SHT31;54731;42.600;23.476;2024-02-21T13:41:14;8.88;57.46
67942;SHT31;54731;42.600;23.476;2024-02-21T13:43:39;8.81;58.77
67942;SHT31;54731;42.600;23.476;2024-02-21T13:46:05;8.72;60.54
67942;SHT31;54731;42.600;23.476;2024-02-21T13:48:30;8.70;61.04
67942;SHT31;54731;42.600;23.476;2024-02-21T13:50:56;8.72;60.78
67942;SHT31;54731;42.600;23.476;2024-02-21T13:53:21;8.70;60.63
67942;SHT31;54731;42.600;23.476;2024-02-21T13:55:47;8.67;60.82
67942;SHT31;54731;42.600;23.476;2024-02-21T13:58:12;8.52;61.75
67942;SHT31;54731;42.600;23.476;2024-02-21T14:00:37;8.29;62.63
67942;SHT31;54731;42.600;23.476;2024-02-21T14:03:03;8.43;62.40
67942;SHT31;54731;42.600;23.476;2024-02-21T14:05:28;8.52;62.36
67942;SHT31;54731;42.600;23.476;2024-02-21T14:07:54;8.50;61.72
67942;SHT31;54731;42.600;23.476;2024-02-21T14:10:19;8.50;61.69
67942;SHT31;54731;42.600;23.476;2024-02-21T14:12:44;8.57;61.56
67942;SHT31;54731;42.600;23.476;2024-02-21T14:15:10;8.60;61.15
67942;SHT31;54731;42.600;23.476;2024-02-21T14:17:35;8.57;61.06
67942;SHT31;54731;42.600;23.476;2024-02-21T14:20:01;8.56;60.54
67942;SHT31;54731;42.600;23.476;2024-02-21T14:22:27;8.53;60.74
67942;SHT31;54731;42.600;23.476;2024-02-21T14:24:52;8.35;61.07
67942;SHT31;54731;42.600;23.476;2024-02-21T14:27:17;8.28;61.00
67942;SHT31;54731;42.600;23.476;2024-02-21T14:29:42;8.35;60.59
67942;SHT31;54731;42.600;23.476;2024-02-21T14:32:08;8.38;60.67
67942;SHT31;54731;42.600;23.476;2024-02-21T14:34:33;8.29;61.16
67942;SHT31;54731;42.600;23.476;2024-02-21T14:36:59;8.33;61.35
67942;SHT31;54731;42.600;23.476;2024-02-21T14:39:24;8.33;61.53
67942;SHT31;54731;42.600;23.476;2024-02-21T14:41:49;8.32;61.93
67942;SHT31;54731;42.600;23.476;2024-02-21T14:44:14;8.35;61.10
67942;SHT31;54731;42.600;23.476;2024-02-21T14:46:40;8.26;61.24
67942;SHT31;54731;42.600;23.476;2024-02-21T14:49:05;8.29;61.39
67942;SHT31;54731;42.600;23.476;2024-02-21T14:51:30;8.29;61.59
67942;SHT31;54731;42.600;23.476;2024-02-21T14:53:56;8.24;61.91
67942;SHT31;54731;42.600;23.476;2024-02-21T14:56:21;8.19;62.12
67942;SHT31;54731;42.600;23.476;2024-02-21T14:58:46;8.19;61.81
67942;SHT31;54731;42.600;23.476;2024-02-21T15:01:11;8.21;61.93
67942;SHT31;54731;42.600;23.476;2024-02-21T15:03:37;8.24;62.11
67942;SHT31;54731;42.600;23.476;2024-02-21T15:06:02;8.26;62.33
67942;SHT31;54731;42.600;23.476;2024-02-21T15:08:28;8.22;62.19
67942;SHT31;54731;42.600;23.476;2024-02-21T15:10:54;8.19;61.38
67942;SHT31;54731;42.600;23.476;2024-02-21T15:13:20;8.12;61.19
67942;SHT31;54731;42.600;23.476;2024-02-21T15:15:47;8.15;61.68
67942;SHT31;54731;42.600;23.476;2024-02-21T15:18:13;8.03;61.68
67942;SHT31;54731;42.600;23.476;2024-02-21T15:20:38;8.09;61.63
67942;SHT31;54731;42.600;23.476;2024-02-21T15:23:04;8.06;61.31